sensor_id;sensor_type;location;lat;lon;timestamp;P1;durP1;ratioP1;P2;durP2;ratioP2
73276;SDS011;61501;43.316;5.372;2024-01-07T00:01:21;2.03;;;1.60;;
73276;SDS011;61501;43.316;5.372;2024-01-07T00:03:47;2.35;;;1.77;;
73276;SDS011;61501;43.316;5.372;2024-01-07T00:06:12;2.72;;;1.85;;
73276;SDS011;61501;43.316;5.372;2024-01-07T00:08:41;2.72;;;1.50;;
73276;SDS011;61501;43.316;5.372;2024-01-07T00:11:10;2.03;;;1.40;;
73276;SDS011;61501;43.316;5.372;2024-01-07T00:13:38;2.20;;;1.50;;
73276;SDS011;61501;43.316;5.372;2024-01-07T00:16:04;1.63;;;1.30;;
73276;SDS011;61501;43.316;5.372;2024-01-07T00:18:32;1.80;;;1.55;;
73276;SDS011;61501;43.316;5.372;2024-01-07T00:20:58;1.75;;;1.30;;
73276;SDS011;61501;43.316;5.372;2024-01-07T00:23:26;1.50;;;1.25;;
73276;SDS011;61501;43.316;5.372;2024-01-07T00:25:54;2.00;;;1.20;;
73276;SDS011;61501;43.316;5.372;2024-01-07T00:28:20;2.05;;;1.40;;
73276;SDS011;61501;43.316;5.372;2024-01-07T00:30:48;1.52;;;1.20;;
73276;SDS011;61501;43.316;5.372;2024-01-07T00:33:20;1.92;;;1.30;;
73276;SDS011;61501;43.316;5.372;2024-01-07T00:35:55;2.65;;;1.25;;
73276;SDS011;61501;43.316;5.372;2024-01-07T00:38:21;1.60;;;1.20;;
73276;SDS011;61501;43.316;5.372;2024-01-07T00:40:46;1.30;;;1.20;;
73276;SDS011;61501;43.316;5.372;2024-01-07T00:43:12;1.40;;;1.10;;
73276;SDS011;61501;43.316;5.372;2024-01-07T00:45:38;1.67;;;1.23;;
73276;SDS011;61501;43.316;5.372;2024-01-07T00:48:03;1.83;;;1.33;;
73276;SDS011;61501;43.316;5.372;2024-01-07T00:50:29;2.08;;;1.30;;
73276;SDS011;61501;43.316;5.372;2024-01-07T00:52:55;1.90;;;1.30;;
73276;SDS011;61501;43.316;5.372;2024-01-07T00:55:20;1.10;;;1.00;;
73276;SDS011;61501;43.316;5.372;2024-01-07T00:57:48;1.42;;;1.00;;
73276;SDS011;61501;43.316;5.372;2024-01-07T01:00:14;1.40;;;1.10;;
73276;SDS011;61501;43.316;5.372;2024-01-07T01:02:40;1.38;;;1.08;;
73276;SDS011;61501;43.316;5.372;2024-01-07T01:05:06;1.50;;;1.10;;
73276;SDS011;61501;43.316;5.372;2024-01-07T01:07:32;2.08;;;1.08;;
73276;SDS011;61501;43.316;5.372;2024-01-07T01:09:58;1.58;;;1.10;;
73276;SDS011;61501;43.316;5.372;2024-01-07T01:12:23;1.88;;;1.10;;
73276;SDS011;61501;43.316;5.372;2024-01-07T01:14:49;1.33;;;1.20;;
73276;SDS011;61501;43.316;5.372;2024-01-07T01:17:15;1.52;;;1.10;;
73276;SDS011;61501;43.316;5.372;2024-01-07T01:19:41;1.13;;;0.93;;
73276;SDS011;61501;43.316;5.372;2024-01-07T01:22:06;2.90;;;1.02;;
73276;SDS011;61501;43.316;5.372;2024-01-07T01:24:32;1.17;;;1.00;;
73276;SDS011;61501;43.316;5.372;2024-01-07T01:26:58;1.95;;;1.10;;
73276;SDS011;61501;43.316;5.372;2024-01-07T01:29:23;1.25;;;0.85;;
73276;SDS011;61501;43.316;5.372;2024-01-07T01:31:49;1.45;;;0.93;;
73276;SDS011;61501;43.316;5.372;2024-01-07T01:34:15;1.27;;;1.00;;
73276;SDS011;61501;43.316;5.372;2024-01-07T01:36:40;2.03;;;1.00;;
73276;SDS011;61501;43.316;5.372;2024-01-07T01:39:06;1.08;;;0.98;;
73276;SDS011;61501;43.316;5.372;2024-01-07T01:41:32;1.20;;;1.10;;
73276;SDS011;61501;43.316;5.372;2024-01-07T01:43:58;1.02;;;0.90;;
73276;SDS011;61501;43.316;5.372;2024-01-07T01:46:25;1.10;;;1.00;;
73276;SDS011;61501;43.316;5.372;2024-01-07T01:48:51;1.63;;;1.13;;
73276;SDS011;61501;43.316;5.372;2024-01-07T01:51:17;1.10;;;1.00;;
73276;SDS011;61501;43.316;5.372;2024-01-07T01:53:44;1.23;;;1.00;;
73276;SDS011;61501;43.316;5.372;2024-01-07T01:56:10;1.40;;;0.90;;
73276;SDS011;61501;43.316;5.372;2024-01-07T01:58:37;1.77;;;0.77;;
73276;SDS011;61501;43.316;5.372;2024-01-07T02:01:03;0.82;;;0.80;;
73276;SDS011;61501;43.316;5.372;2024-01-07T02:03:29;0.88;;;0.80;;
73276;SDS011;61501;43.316;5.372;2024-01-07T02:05:55;1.23;;;0.90;;
73276;SDS011;61501;43.316;5.372;2024-01-07T02:08:22;1.10;;;0.80;;
73276;SDS011;61501;43.316;5.372;2024-01-07T02:10:48;1.35;;;1.05;;
73276;SDS011;61501;43.316;5.372;2024-01-07T02:13:13;1.10;;;1.00;;
73276;SDS011;61501;43.316;5.372;2024-01-07T02:15:39;1.42;;;1.00;;
73276;SDS011;61501;43.316;5.372;2024-01-07T02:18:05;0.80;;;0.80;;
73276;SDS011;61501;43.316;5.372;2024-01-07T02:20:30;0.90;;;0.90;;
73276;SDS011;61501;43.316;5.372;2024-01-07T02:22:56;0.80;;;0.80;;
73276;SDS011;61501;43.316;5.372;2024-01-07T02:25:24;1.88;;;0.90;;
73276;SDS011;61501;43.316;5.372;2024-01-07T02:27:50;4.43;;;1.00;;
73276;SDS011;61501;43.316;5.372;2024-01-07T02:30:15;0.73;;;0.70;;
73276;SDS011;61501;43.316;5.372;2024-01-07T02:32:42;0.95;;;0.80;;
73276;SDS011;61501;43.316;5.372;2024-01-07T02:35:07;1.05;;;0.70;;
73276;SDS011;61501;43.316;5.372;2024-01-07T02:37:33;0.85;;;0.70;;
73276;SDS011;61501;43.316;5.372;2024-01-07T02:39:59;0.80;;;0.80;;
73276;SDS011;61501;43.316;5.372;2024-01-07T02:42:25;1.55;;;0.77;;
73276;SDS011;61501;43.316;5.372;2024-01-07T02:44:50;0.60;;;0.60;;
73276;SDS011;61501;43.316;5.372;2024-01-07T02:47:16;1.15;;;0.70;;
73276;SDS011;61501;43.316;5.372;2024-01-07T02:49:42;0.95;;;0.80;;
73276;SDS011;61501;43.316;5.372;2024-01-07T02:52:07;1.15;;;0.65;;
73276;SDS011;61501;43.316;5.372;2024-01-07T02:54:33;0.77;;;0.77;;
73276;SDS011;61501;43.316;5.372;2024-01-07T02:56:58;0.70;;;0.70;;
73276;SDS011;61501;43.316;5.372;2024-01-07T02:59:24;1.92;;;1.20;;
73276;SDS011;61501;43.316;5.372;2024-01-07T03:01:50;0.65;;;0.65;;
73276;SDS011;61501;43.316;5.372;2024-01-07T03:04:15;0.60;;;0.60;;
73276;SDS011;61501;43.316;5.372;2024-01-07T03:06:41;1.25;;;0.80;;
73276;SDS011;61501;43.316;5.372;2024-01-07T03:09:07;1.25;;;0.80;;
73276;SDS011;61501;43.316;5.372;2024-01-07T03:11:33;0.60;;;0.60;;
73276;SDS011;61501;43.316;5.372;2024-01-07T03:13:59;0.65;;;0.65;;
73276;SDS011;61501;43.316;5.372;2024-01-07T03:16:25;1.25;;;0.90;;
73276;SDS011;61501;43.316;5.372;2024-01-07T03:18:51;0.73;;;0.70;;
73276;SDS011;61501;43.316;5.372;2024-01-07T03:21:18;1.02;;;0.70;;
73276;SDS011;61501;43.316;5.372;2024-01-07T03:23:44;0.60;;;0.60;;
73276;SDS011;61501;43.316;5.372;2024-01-07T03:26:11;0.50;;;0.50;;
73276;SDS011;61501;43.316;5.372;2024-01-07T03:28:37;0.95;;;0.70;;
73276;SDS011;61501;43.316;5.372;2024-01-07T03:31:09;1.60;;;0.70;;
73276;SDS011;61501;43.316;5.372;2024-01-07T03:33:43;0.82;;;0.60;;
73276;SDS011;61501;43.316;5.372;2024-01-07T03:36:09;0.60;;;0.60;;
73276;SDS011;61501;43.316;5.372;2024-01-07T03:38:36;2.10;;;0.70;;
73276;SDS011;61501;43.316;5.372;2024-01-07T03:41:03;0.60;;;0.60;;
73276;SDS011;61501;43.316;5.372;2024-01-07T03:43:28;0.50;;;0.50;;
73276;SDS011;61501;43.316;5.372;2024-01-07T03:45:54;0.68;;;0.68;;
73276;SDS011;61501;43.316;5.372;2024-01-07T03:48:20;0.60;;;0.52;;
73276;SDS011;61501;43.316;5.372;2024-01-07T03:50:45;0.50;;;0.50;;
73276;SDS011;61501;43.316;5.372;2024-01-07T03:53:12;0.50;;;0.50;;
73276;SDS011;61501;43.316;5.372;2024-01-07T03:55:38;0.50;;;0.50;;
73276;SDS011;61501;43.316;5.372;2024-01-07T03:58:04;0.50;;;0.50;;
73276;SDS011;61501;43.316;5.372;2024-01-07T04:00:30;0.60;;;0.60;;
73276;SDS011;61501;43.316;5.372;2024-01-07T04:02:56;0.55;;;0.50;;
73276;SDS011;61501;43.316;5.372;2024-01-07T04:05:22;0.55;;;0.55;;
73276;SDS011;61501;43.316;5.372;2024-01-07T04:07:47;0.45;;;0.40;;
73276;SDS011;61501;43.316;5.372;2024-01-07T04:10:14;0.85;;;0.50;;
73276;SDS011;61501;43.316;5.372;2024-01-07T04:12:43;3.05;;;0.50;;
73276;SDS011;61501;43.316;5.372;2024-01-07T04:15:10;0.68;;;0.60;;
73276;SDS011;61501;43.316;5.372;2024-01-07T04:17:36;0.82;;;0.40;;
73276;SDS011;61501;43.316;5.372;2024-01-07T04:20:02;0.32;;;0.32;;
73276;SDS011;61501;43.316;5.372;2024-01-07T04:22:28;0.73;;;0.40;;
73276;SDS011;61501;43.316;5.372;2024-01-07T04:24:54;0.50;;;0.50;;
73276;SDS011;61501;43.316;5.372;2024-01-07T04:27:20;0.40;;;0.40;;
73276;SDS011;61501;43.316;5.372;2024-01-07T04:29:45;0.40;;;0.40;;
73276;SDS011;61501;43.316;5.372;2024-01-07T04:32:11;0.50;;;0.40;;
73276;SDS011;61501;43.316;5.372;2024-01-07T04:34:37;0.40;;;0.40;;
73276;SDS011;61501;43.316;5.372;2024-01-07T04:37:03;0.40;;;0.40;;
73276;SDS011;61501;43.316;5.372;2024-01-07T04:39:28;0.47;;;0.47;;
73276;SDS011;61501;43.316;5.372;2024-01-07T04:41:54;0.63;;;0.60;;
73276;SDS011;61501;43.316;5.372;2024-01-07T04:44:20;0.50;;;0.50;;
73276;SDS011;61501;43.316;5.372;2024-01-07T04:46:47;0.80;;;0.80;;
73276;SDS011;61501;43.316;5.372;2024-01-07T04:49:13;0.50;;;0.50;;
73276;SDS011;61501;43.316;5.372;2024-01-07T04:51:39;0.50;;;0.50;;
73276;SDS011;61501;43.316;5.372;2024-01-07T04:54:05;0.75;;;0.52;;
73276;SDS011;61501;43.316;5.372;2024-01-07T04:56:33;0.55;;;0.50;;
73276;SDS011;61501;43.316;5.372;2024-01-07T04:58:59;0.47;;;0.47;;
73276;SDS011;61501;43.316;5.372;2024-01-07T05:01:25;0.40;;;0.40;;
73276;SDS011;61501;43.316;5.372;2024-01-07T05:03:50;1.05;;;0.40;;
73276;SDS011;61501;43.316;5.372;2024-01-07T05:06:16;0.40;;;0.40;;
73276;SDS011;61501;43.316;5.372;2024-01-07T05:08:42;0.50;;;0.50;;
73276;SDS011;61501;43.316;5.372;2024-01-07T05:11:08;2.00;;;0.43;;
73276;SDS011;61501;43.316;5.372;2024-01-07T05:13:34;0.80;;;0.60;;
73276;SDS011;61501;43.316;5.372;2024-01-07T05:16:00;0.43;;;0.43;;
73276;SDS011;61501;43.316;5.372;2024-01-07T05:18:26;0.45;;;0.45;;
73276;SDS011;61501;43.316;5.372;2024-01-07T05:20:52;0.50;;;0.50;;
73276;SDS011;61501;43.316;5.372;2024-01-07T05:23:17;0.50;;;0.50;;
73276;SDS011;61501;43.316;5.372;2024-01-07T05:25:43;0.60;;;0.60;;
73276;SDS011;61501;43.316;5.372;2024-01-07T05:28:09;1.50;;;0.60;;
73276;SDS011;61501;43.316;5.372;2024-01-07T05:30:35;0.70;;;0.50;;
73276;SDS011;61501;43.316;5.372;2024-01-07T05:33:01;1.17;;;0.60;;
73276;SDS011;61501;43.316;5.372;2024-01-07T05:35:27;0.65;;;0.63;;
73276;SDS011;61501;43.316;5.372;2024-01-07T05:37:52;0.60;;;0.50;;
73276;SDS011;61501;43.316;5.372;2024-01-07T05:40:18;0.73;;;0.70;;
73276;SDS011;61501;43.316;5.372;2024-01-07T05:42:44;0.50;;;0.50;;
73276;SDS011;61501;43.316;5.372;2024-01-07T05:45:09;0.70;;;0.65;;
73276;SDS011;61501;43.316;5.372;2024-01-07T05:47:35;0.65;;;0.65;;
73276;SDS011;61501;43.316;5.372;2024-01-07T05:50:01;0.50;;;0.50;;
73276;SDS011;61501;43.316;5.372;2024-01-07T05:52:27;1.65;;;0.80;;
73276;SDS011;61501;43.316;5.372;2024-01-07T05:54:53;0.85;;;0.80;;
73276;SDS011;61501;43.316;5.372;2024-01-07T05:57:18;0.98;;;0.80;;
73276;SDS011;61501;43.316;5.372;2024-01-07T05:59:44;0.95;;;0.85;;
73276;SDS011;61501;43.316;5.372;2024-01-07T06:02:10;0.95;;;0.93;;
73276;SDS011;61501;43.316;5.372;2024-01-07T06:04:37;1.33;;;0.88;;
73276;SDS011;61501;43.316;5.372;2024-01-07T06:07:03;1.08;;;0.90;;
73276;SDS011;61501;43.316;5.372;2024-01-07T06:09:29;0.93;;;0.90;;
73276;SDS011;61501;43.316;5.372;2024-01-07T06:11:54;2.38;;;1.02;;
73276;SDS011;61501;43.316;5.372;2024-01-07T06:14:21;1.25;;;0.98;;
73276;SDS011;61501;43.316;5.372;2024-01-07T06:16:47;1.33;;;0.90;;
73276;SDS011;61501;43.316;5.372;2024-01-07T06:19:13;1.10;;;1.00;;
73276;SDS011;61501;43.316;5.372;2024-01-07T06:21:42;1.20;;;1.10;;
73276;SDS011;61501;43.316;5.372;2024-01-07T06:24:08;1.13;;;0.95;;
73276;SDS011;61501;43.316;5.372;2024-01-07T06:26:34;1.15;;;1.02;;
73276;SDS011;61501;43.316;5.372;2024-01-07T06:29:00;1.00;;;0.90;;
73276;SDS011;61501;43.316;5.372;2024-01-07T06:31:26;1.27;;;1.00;;
73276;SDS011;61501;43.316;5.372;2024-01-07T06:33:52;1.05;;;0.95;;
73276;SDS011;61501;43.316;5.372;2024-01-07T06:36:17;1.10;;;1.00;;
73276;SDS011;61501;43.316;5.372;2024-01-07T06:38:43;1.20;;;1.10;;
73276;SDS011;61501;43.316;5.372;2024-01-07T06:41:09;1.73;;;1.20;;
73276;SDS011;61501;43.316;5.372;2024-01-07T06:43:36;1.23;;;1.00;;
73276;SDS011;61501;43.316;5.372;2024-01-07T06:46:02;1.48;;;1.00;;
73276;SDS011;61501;43.316;5.372;2024-01-07T06:48:28;1.23;;;1.13;;
73276;SDS011;61501;43.316;5.372;2024-01-07T06:50:53;2.40;;;1.00;;
73276;SDS011;61501;43.316;5.372;2024-01-07T06:53:19;1.48;;;1.10;;
73276;SDS011;61501;43.316;5.372;2024-01-07T06:55:46;2.47;;;1.30;;
73276;SDS011;61501;43.316;5.372;2024-01-07T06:58:12;2.13;;;1.25;;
73276;SDS011;61501;43.316;5.372;2024-01-07T07:00:37;1.52;;;1.02;;
73276;SDS011;61501;43.316;5.372;2024-01-07T07:03:03;1.33;;;1.20;;
73276;SDS011;61501;43.316;5.372;2024-01-07T07:05:30;2.90;;;1.40;;
73276;SDS011;61501;43.316;5.372;2024-01-07T07:07:56;1.35;;;1.10;;
73276;SDS011;61501;43.316;5.372;2024-01-07T07:10:22;1.50;;;1.13;;
73276;SDS011;61501;43.316;5.372;2024-01-07T07:12:48;2.20;;;1.10;;
73276;SDS011;61501;43.316;5.372;2024-01-07T07:15:15;3.22;;;1.25;;
73276;SDS011;61501;43.316;5.372;2024-01-07T07:17:41;1.65;;;1.20;;
73276;SDS011;61501;43.316;5.372;2024-01-07T07:20:07;1.50;;;1.40;;
73276;SDS011;61501;43.316;5.372;2024-01-07T07:22:33;1.40;;;1.30;;
73276;SDS011;61501;43.316;5.372;2024-01-07T07:24:59;2.80;;;1.40;;
73276;SDS011;61501;43.316;5.372;2024-01-07T07:27:25;1.40;;;1.30;;
73276;SDS011;61501;43.316;5.372;2024-01-07T07:29:50;3.25;;;1.40;;
73276;SDS011;61501;43.316;5.372;2024-01-07T07:32:16;1.45;;;1.35;;
73276;SDS011;61501;43.316;5.372;2024-01-07T07:34:42;1.95;;;1.40;;
73276;SDS011;61501;43.316;5.372;2024-01-07T07:37:07;1.52;;;1.40;;
73276;SDS011;61501;43.316;5.372;2024-01-07T07:39:33;1.90;;;1.48;;
73276;SDS011;61501;43.316;5.372;2024-01-07T07:41:59;3.75;;;1.50;;
73276;SDS011;61501;43.316;5.372;2024-01-07T07:44:25;1.52;;;1.40;;
73276;SDS011;61501;43.316;5.372;2024-01-07T07:46:50;1.73;;;1.40;;
73276;SDS011;61501;43.316;5.372;2024-01-07T07:49:16;1.35;;;1.25;;
73276;SDS011;61501;43.316;5.372;2024-01-07T07:51:43;1.70;;;1.48;;
73276;SDS011;61501;43.316;5.372;2024-01-07T07:54:09;2.25;;;1.60;;
73276;SDS011;61501;43.316;5.372;2024-01-07T07:56:34;2.85;;;1.60;;
73276;SDS011;61501;43.316;5.372;2024-01-07T07:59:01;1.90;;;1.42;;
73276;SDS011;61501;43.316;5.372;2024-01-07T08:01:27;1.95;;;1.60;;
73276;SDS011;61501;43.316;5.372;2024-01-07T08:04:02;2.28;;;1.70;;
73276;SDS011;61501;43.316;5.372;2024-01-07T08:06:30;1.77;;;1.60;;
73276;SDS011;61501;43.316;5.372;2024-01-07T08:08:56;4.38;;;2.50;;
73276;SDS011;61501;43.316;5.372;2024-01-07T08:11:21;4.45;;;1.80;;
73276;SDS011;61501;43.316;5.372;2024-01-07T08:13:47;1.83;;;1.60;;
73276;SDS011;61501;43.316;5.372;2024-01-07T08:16:13;1.80;;;1.40;;
73276;SDS011;61501;43.316;5.372;2024-01-07T08:18:38;1.60;;;1.50;;
73276;SDS011;61501;43.316;5.372;2024-01-07T08:21:04;2.08;;;1.60;;
73276;SDS011;61501;43.316;5.372;2024-01-07T08:23:30;1.65;;;1.50;;
73276;SDS011;61501;43.316;5.372;2024-01-07T08:25:56;1.70;;;1.30;;
73276;SDS011;61501;43.316;5.372;2024-01-07T08:28:21;1.80;;;1.38;;
73276;SDS011;61501;43.316;5.372;2024-01-07T08:30:47;1.70;;;1.27;;
73276;SDS011;61501;43.316;5.372;2024-01-07T08:33:14;2.85;;;1.50;;
73276;SDS011;61501;43.316;5.372;2024-01-07T08:35:39;1.92;;;1.58;;
73276;SDS011;61501;43.316;5.372;2024-01-07T08:38:08;2.17;;;1.20;;
73276;SDS011;61501;43.316;5.372;2024-01-07T08:40:34;4.00;;;1.42;;
73276;SDS011;61501;43.316;5.372;2024-01-07T08:42:59;2.03;;;1.30;;
73276;SDS011;61501;43.316;5.372;2024-01-07T08:45:25;1.80;;;1.27;;
73276;SDS011;61501;43.316;5.372;2024-01-07T08:47:50;3.80;;;2.33;;
73276;SDS011;61501;43.316;5.372;2024-01-07T08:50:16;2.22;;;1.30;;
73276;SDS011;61501;43.316;5.372;2024-01-07T08:52:42;2.10;;;1.90;;
73276;SDS011;61501;43.316;5.372;2024-01-07T08:55:07;2.85;;;2.05;;
73276;SDS011;61501;43.316;5.372;2024-01-07T08:57:35;1.30;;;1.20;;
73276;SDS011;61501;43.316;5.372;2024-01-07T09:00:01;1.60;;;1.05;;
73276;SDS011;61501;43.316;5.372;2024-01-07T09:02:27;1.23;;;1.00;;
73276;SDS011;61501;43.316;5.372;2024-01-07T09:04:53;1.20;;;1.08;;
73276;SDS011;61501;43.316;5.372;2024-01-07T09:07:18;1.73;;;1.10;;
73276;SDS011;61501;43.316;5.372;2024-01-07T09:09:44;1.30;;;1.20;;
73276;SDS011;61501;43.316;5.372;2024-01-07T09:12:10;1.67;;;1.13;;
73276;SDS011;61501;43.316;5.372;2024-01-07T09:14:38;1.92;;;1.20;;
73276;SDS011;61501;43.316;5.372;2024-01-07T09:17:04;2.45;;;1.10;;
73276;SDS011;61501;43.316;5.372;2024-01-07T09:19:30;1.55;;;1.23;;
73276;SDS011;61501;43.316;5.372;2024-01-07T09:21:55;1.40;;;1.10;;
73276;SDS011;61501;43.316;5.372;2024-01-07T09:24:21;1.10;;;1.00;;
73276;SDS011;61501;43.316;5.372;2024-01-07T09:26:47;3.97;;;1.40;;
73276;SDS011;61501;43.316;5.372;2024-01-07T09:29:12;1.27;;;1.10;;
73276;SDS011;61501;43.316;5.372;2024-01-07T09:31:39;3.65;;;1.67;;
73276;SDS011;61501;43.316;5.372;2024-01-07T09:34:04;3.15;;;1.15;;
73276;SDS011;61501;43.316;5.372;2024-01-07T09:36:31;1.50;;;1.10;;
73276;SDS011;61501;43.316;5.372;2024-01-07T09:39:01;1.88;;;1.40;;
73276;SDS011;61501;43.316;5.372;2024-01-07T09:41:29;1.30;;;1.10;;
73276;SDS011;61501;43.316;5.372;2024-01-07T09:43:55;2.50;;;1.10;;
73276;SDS011;61501;43.316;5.372;2024-01-07T09:46:22;1.30;;;1.20;;
73276;SDS011;61501;43.316;5.372;2024-01-07T09:48:49;2.92;;;1.20;;
73276;SDS011;61501;43.316;5.372;2024-01-07T09:51:17;1.10;;;1.00;;
73276;SDS011;61501;43.316;5.372;2024-01-07T09:53:47;1.30;;;1.15;;
73276;SDS011;61501;43.316;5.372;2024-01-07T09:56:22;1.00;;;0.90;;
73276;SDS011;61501;43.316;5.372;2024-01-07T09:58:50;1.02;;;0.90;;
73276;SDS011;61501;43.316;5.372;2024-01-07T10:01:19;0.80;;;0.80;;
73276;SDS011;61501;43.316;5.372;2024-01-07T10:03:45;2.85;;;1.00;;
73276;SDS011;61501;43.316;5.372;2024-01-07T10:06:11;2.60;;;1.13;;
73276;SDS011;61501;43.316;5.372;2024-01-07T10:08:46;5.53;;;1.23;;
73276;SDS011;61501;43.316;5.372;2024-01-07T10:11:13;1.17;;;1.00;;
73276;SDS011;61501;43.316;5.372;2024-01-07T10:13:39;3.05;;;1.23;;
73276;SDS011;61501;43.316;5.372;2024-01-07T10:16:07;1.63;;;1.10;;
73276;SDS011;61501;43.316;5.372;2024-01-07T10:18:33;1.13;;;1.02;;
73276;SDS011;61501;43.316;5.372;2024-01-07T10:21:02;0.90;;;0.90;;
73276;SDS011;61501;43.316;5.372;2024-01-07T10:23:28;1.10;;;1.00;;
73276;SDS011;61501;43.316;5.372;2024-01-07T10:25:54;1.40;;;1.00;;
73276;SDS011;61501;43.316;5.372;2024-01-07T10:28:22;1.20;;;0.95;;
73276;SDS011;61501;43.316;5.372;2024-01-07T10:30:51;2.05;;;1.00;;
73276;SDS011;61501;43.316;5.372;2024-01-07T10:33:19;1.15;;;1.00;;
73276;SDS011;61501;43.316;5.372;2024-01-07T10:35:49;1.20;;;1.02;;
73276;SDS011;61501;43.316;5.372;2024-01-07T10:38:20;1.20;;;1.00;;
73276;SDS011;61501;43.316;5.372;2024-01-07T10:40:47;1.10;;;0.88;;
73276;SDS011;61501;43.316;5.372;2024-01-07T10:43:15;1.25;;;1.00;;
73276;SDS011;61501;43.316;5.372;2024-01-07T10:45:42;1.00;;;0.90;;
73276;SDS011;61501;43.316;5.372;2024-01-07T10:48:10;1.83;;;1.20;;
73276;SDS011;61501;43.316;5.372;2024-01-07T10:50:37;2.92;;;1.10;;
73276;SDS011;61501;43.316;5.372;2024-01-07T10:53:04;2.70;;;1.05;;
73276;SDS011;61501;43.316;5.372;2024-01-07T10:55:33;1.15;;;1.00;;
73276;SDS011;61501;43.316;5.372;2024-01-07T10:58:02;2.33;;;1.20;;
73276;SDS011;61501;43.316;5.372;2024-01-07T11:00:29;1.48;;;1.00;;
73276;SDS011;61501;43.316;5.372;2024-01-07T11:05:50;1.25;;;1.10;;
73276;SDS011;61501;43.316;5.372;2024-01-07T11:11:11;1.38;;;1.08;;
73276;SDS011;61501;43.316;5.372;2024-01-07T11:13:41;1.65;;;1.17;;
73276;SDS011;61501;43.316;5.372;2024-01-07T11:16:09;1.48;;;1.13;;
73276;SDS011;61501;43.316;5.372;2024-01-07T11:18:46;1.58;;;1.00;;
73276;SDS011;61501;43.316;5.372;2024-01-07T11:21:22;1.50;;;1.20;;
73276;SDS011;61501;43.316;5.372;2024-01-07T11:23:49;1.27;;;1.08;;
73276;SDS011;61501;43.316;5.372;2024-01-07T11:26:17;1.23;;;1.13;;
73276;SDS011;61501;43.316;5.372;2024-01-07T11:34:04;2.10;;;1.05;;
73276;SDS011;61501;43.316;5.372;2024-01-07T11:36:30;1.33;;;1.05;;
73276;SDS011;61501;43.316;5.372;2024-01-07T11:38:57;2.10;;;1.50;;
73276;SDS011;61501;43.316;5.372;2024-01-07T11:41:22;2.88;;;1.77;;
73276;SDS011;61501;43.316;5.372;2024-01-07T11:43:57;3.20;;;1.23;;
73276;SDS011;61501;43.316;5.372;2024-01-07T11:46:25;2.60;;;1.10;;
73276;SDS011;61501;43.316;5.372;2024-01-07T11:48:55;3.15;;;1.20;;
73276;SDS011;61501;43.316;5.372;2024-01-07T11:51:29;1.70;;;1.20;;
73276;SDS011;61501;43.316;5.372;2024-01-07T11:54:05;1.83;;;1.30;;
73276;SDS011;61501;43.316;5.372;2024-01-07T11:56:40;2.50;;;1.10;;
73276;SDS011;61501;43.316;5.372;2024-01-07T11:59:08;1.35;;;1.13;;
73276;SDS011;61501;43.316;5.372;2024-01-07T12:01:46;1.25;;;0.90;;
73276;SDS011;61501;43.316;5.372;2024-01-07T12:04:35;1.27;;;1.00;;
73276;SDS011;61501;43.316;5.372;2024-01-07T12:07:01;1.52;;;1.13;;
73276;SDS011;61501;43.316;5.372;2024-01-07T12:09:28;1.10;;;1.00;;
73276;SDS011;61501;43.316;5.372;2024-01-07T12:11:54;2.45;;;1.17;;
73276;SDS011;61501;43.316;5.372;2024-01-07T12:14:20;0.98;;;0.90;;
73276;SDS011;61501;43.316;5.372;2024-01-07T12:16:46;1.98;;;1.10;;
73276;SDS011;61501;43.316;5.372;2024-01-07T12:19:12;2.45;;;0.90;;
73276;SDS011;61501;43.316;5.372;2024-01-07T12:21:38;1.23;;;1.13;;
73276;SDS011;61501;43.316;5.372;2024-01-07T12:24:05;2.47;;;1.00;;
73276;SDS011;61501;43.316;5.372;2024-01-07T12:26:30;0.82;;;0.82;;
73276;SDS011;61501;43.316;5.372;2024-01-07T12:28:58;1.55;;;1.20;;
73276;SDS011;61501;43.316;5.372;2024-01-07T12:31:28;2.35;;;1.10;;
73276;SDS011;61501;43.316;5.372;2024-01-07T12:33:55;2.10;;;1.30;;
73276;SDS011;61501;43.316;5.372;2024-01-07T12:36:22;1.80;;;1.05;;
73276;SDS011;61501;43.316;5.372;2024-01-07T12:38:48;1.25;;;0.80;;
73276;SDS011;61501;43.316;5.372;2024-01-07T12:41:14;1.67;;;0.80;;
73276;SDS011;61501;43.316;5.372;2024-01-07T12:43:40;0.70;;;0.70;;
73276;SDS011;61501;43.316;5.372;2024-01-07T12:46:06;1.88;;;0.80;;
73276;SDS011;61501;43.316;5.372;2024-01-07T12:48:32;1.23;;;0.93;;
73276;SDS011;61501;43.316;5.372;2024-01-07T12:50:58;1.33;;;0.80;;
73276;SDS011;61501;43.316;5.372;2024-01-07T12:53:25;1.45;;;0.85;;
73276;SDS011;61501;43.316;5.372;2024-01-07T12:55:50;1.65;;;1.10;;
73276;SDS011;61501;43.316;5.372;2024-01-07T12:58:17;2.30;;;1.20;;
73276;SDS011;61501;43.316;5.372;2024-01-07T13:00:43;1.27;;;1.00;;
73276;SDS011;61501;43.316;5.372;2024-01-07T13:03:09;1.23;;;1.10;;
73276;SDS011;61501;43.316;5.372;2024-01-07T13:08:13;2.38;;;0.90;;
73276;SDS011;61501;43.316;5.372;2024-01-07T13:10:39;1.88;;;0.93;;
73276;SDS011;61501;43.316;5.372;2024-01-07T13:13:05;1.42;;;0.98;;
73276;SDS011;61501;43.316;5.372;2024-01-07T13:15:30;1.27;;;1.10;;
73276;SDS011;61501;43.316;5.372;2024-01-07T13:17:57;2.17;;;1.30;;
73276;SDS011;61501;43.316;5.372;2024-01-07T13:20:22;2.10;;;1.20;;
73276;SDS011;61501;43.316;5.372;2024-01-07T13:22:49;1.58;;;1.30;;
73276;SDS011;61501;43.316;5.372;2024-01-07T13:25:15;1.40;;;1.10;;
73276;SDS011;61501;43.316;5.372;2024-01-07T13:27:40;1.58;;;1.20;;
73276;SDS011;61501;43.316;5.372;2024-01-07T13:30:07;1.92;;;1.20;;
73276;SDS011;61501;43.316;5.372;2024-01-07T13:32:34;2.05;;;1.13;;
73276;SDS011;61501;43.316;5.372;2024-01-07T13:35:01;2.63;;;1.10;;
73276;SDS011;61501;43.316;5.372;2024-01-07T13:37:28;2.03;;;1.10;;
73276;SDS011;61501;43.316;5.372;2024-01-07T13:39:55;1.58;;;1.30;;
73276;SDS011;61501;43.316;5.372;2024-01-07T13:42:21;1.38;;;1.25;;
73276;SDS011;61501;43.316;5.372;2024-01-07T13:44:47;1.30;;;1.10;;
73276;SDS011;61501;43.316;5.372;2024-01-07T13:47:12;2.92;;;1.40;;
73276;SDS011;61501;43.316;5.372;2024-01-07T13:49:42;2.63;;;1.50;;
73276;SDS011;61501;43.316;5.372;2024-01-07T13:52:10;1.20;;;1.10;;
73276;SDS011;61501;43.316;5.372;2024-01-07T13:54:40;1.10;;;1.00;;
73276;SDS011;61501;43.316;5.372;2024-01-07T13:57:06;1.60;;;1.38;;
73276;SDS011;61501;43.316;5.372;2024-01-07T13:59:32;1.65;;;1.30;;
73276;SDS011;61501;43.316;5.372;2024-01-07T14:01:57;1.55;;;1.27;;
73276;SDS011;61501;43.316;5.372;2024-01-07T14:04:23;1.25;;;1.15;;
73276;SDS011;61501;43.316;5.372;2024-01-07T14:06:55;1.33;;;1.23;;
73276;SDS011;61501;43.316;5.372;2024-01-07T14:09:21;2.55;;;1.10;;
73276;SDS011;61501;43.316;5.372;2024-01-07T14:11:47;1.70;;;1.25;;
73276;SDS011;61501;43.316;5.372;2024-01-07T14:14:13;2.67;;;1.77;;
73276;SDS011;61501;43.316;5.372;2024-01-07T14:16:38;2.20;;;1.40;;
73276;SDS011;61501;43.316;5.372;2024-01-07T14:19:05;2.05;;;1.40;;
73276;SDS011;61501;43.316;5.372;2024-01-07T14:21:31;3.05;;;1.65;;
73276;SDS011;61501;43.316;5.372;2024-01-07T14:23:56;2.58;;;1.20;;
73276;SDS011;61501;43.316;5.372;2024-01-07T14:26:22;5.30;;;1.58;;
73276;SDS011;61501;43.316;5.372;2024-01-07T14:28:49;1.50;;;1.05;;
73276;SDS011;61501;43.316;5.372;2024-01-07T14:31:18;1.45;;;1.02;;
73276;SDS011;61501;43.316;5.372;2024-01-07T14:33:44;1.83;;;1.45;;
73276;SDS011;61501;43.316;5.372;2024-01-07T14:36:10;1.77;;;1.20;;
73276;SDS011;61501;43.316;5.372;2024-01-07T14:38:42;1.77;;;1.30;;
73276;SDS011;61501;43.316;5.372;2024-01-07T14:41:09;1.50;;;1.10;;
73276;SDS011;61501;43.316;5.372;2024-01-07T14:43:35;2.75;;;1.58;;
73276;SDS011;61501;43.316;5.372;2024-01-07T14:46:02;1.20;;;1.10;;
73276;SDS011;61501;43.316;5.372;2024-01-07T14:48:28;2.28;;;1.20;;
73276;SDS011;61501;43.316;5.372;2024-01-07T14:50:53;2.13;;;1.38;;
73276;SDS011;61501;43.316;5.372;2024-01-07T14:53:19;1.08;;;1.00;;
73276;SDS011;61501;43.316;5.372;2024-01-07T14:55:45;1.77;;;1.40;;
73276;SDS011;61501;43.316;5.372;2024-01-07T14:58:10;1.67;;;1.30;;